Time;durP1;ratioP1;P1;durP2;ratioP2;P2;SDS_P1;SDS_P2;PMS_P1;PMS_P2;Temp;Humidity;BMP_temperature;BMP_pressure;BME280_temperature;BME280_humidity;BME280_pressure;Samples;Min_cycle;Max_cycle;Signal;HPM_P1;HPM_P2
2021/06/01 00:01:19;;;;;;;7.40;4.90;;;13.20;99.90;;;;;;5069206;28;20907;-46
2021/06/01 00:03:45;;;;;;;5.70;4.60;;;13.10;99.90;;;;;;5093021;28;20194;-45
2021/06/01 00:06:12;;;;;;;6.70;4.77;;;13.00;99.90;;;;;;5086764;28;20555;-50
2021/06/01 00:08:38;;;;;;;5.93;4.60;;;12.90;99.90;;;;;;5075922;28;20226;-48
2021/06/01 00:11:05;;;;;;;8.40;5.17;;;12.90;99.90;;;;;;5081551;28;20603;-46
2021/06/01 00:13:31;;;;;;;7.93;5.47;;;12.80;99.90;;;;;;5074333;28;20210;-47
2021/06/01 00:15:59;;;;;;;5.70;5.10;;;12.80;99.90;;;;;;5067314;28;20194;-49
2021/06/01 00:18:25;;;;;;;6.03;4.83;;;12.70;99.90;;;;;;5079001;28;20210;-46
2021/06/01 00:20:51;;;;;;;5.90;5.17;;;12.60;99.90;;;;;;5081883;28;20201;-46
2021/06/01 00:23:17;;;;;;;8.80;5.47;;;12.70;99.90;;;;;;5083856;28;20200;-47
2021/06/01 00:25:44;;;;;;;6.47;5.37;;;12.60;99.90;;;;;;5085200;28;20202;-46
2021/06/01 00:28:10;;;;;;;7.40;5.07;;;12.60;99.90;;;;;;5082240;28;20311;-48
2021/06/01 00:30:36;;;;;;;6.23;4.90;;;12.60;99.90;;;;;;5064325;28;20838;-47
2021/06/01 00:33:04;;;;;;;7.63;5.03;;;12.60;99.90;;;;;;5088077;28;20611;-49
2021/06/01 00:35:33;;;;;;;5.87;5.27;;;12.60;99.90;;;;;;5075798;28;20340;-50
2021/06/01 00:37:59;;;;;;;7.60;5.27;;;12.60;99.90;;;;;;5082206;28;20279;-47
2021/06/01 00:40:25;;;;;;;5.53;4.63;;;12.50;99.90;;;;;;5073051;28;20198;-45
2021/06/01 00:42:52;;;;;;;5.77;4.77;;;12.60;99.90;;;;;;5085042;28;20690;-45
2021/06/01 00:45:20;;;;;;;7.93;4.77;;;12.50;99.90;;;;;;5066396;28;20209;-51
2021/06/01 00:47:47;;;;;;;5.93;5.23;;;12.50;99.90;;;;;;5073865;28;20291;-45
2021/06/01 00:50:15;;;;;;;8.23;5.20;;;12.50;99.90;;;;;;5079526;28;20618;-47
2021/06/01 00:52:41;;;;;;;5.57;4.73;;;12.50;99.90;;;;;;5083831;28;20194;-45
2021/06/01 00:55:09;;;;;;;5.27;4.77;;;12.50;99.90;;;;;;5076195;28;20205;-47
2021/06/01 00:57:35;;;;;;;7.67;5.07;;;12.50;99.90;;;;;;5082827;28;20218;-46
2021/06/01 01:00:04;;;;;;;5.00;4.50;;;12.50;99.90;;;;;;5079227;28;20194;-48
2021/06/01 01:02:31;;;;;;;8.73;5.00;;;12.50;99.90;;;;;;5077300;28;20859;-48
2021/06/01 01:04:57;;;;;;;6.73;5.40;;;12.50;99.90;;;;;;5084551;28;20229;-48
2021/06/01 01:07:35;;;;;;;8.20;5.20;;;12.40;99.90;;;;;;5080218;28;20213;-48
2021/06/01 01:10:02;;;;;;;6.30;4.93;;;12.30;99.90;;;;;;5080675;28;20213;-48
2021/06/01 01:12:31;;;;;;;5.57;4.90;;;12.20;99.90;;;;;;5084505;28;20331;-45
2021/06/01 01:15:01;;;;;;;5.57;4.90;;;12.20;99.90;;;;;;5084289;28;20202;-46
2021/06/01 01:17:36;;;;;;;6.40;5.47;;;12.10;99.90;;;;;;5064580;28;20220;-46
2021/06/01 01:20:23;;;;;;;6.63;4.67;;;12.10;99.90;;;;;;5081975;28;20190;-49
2021/06/01 01:22:53;;;;;;;5.97;4.90;;;12.10;99.90;;;;;;5077152;28;20206;-50
2021/06/01 01:25:23;;;;;;;7.70;5.13;;;12.10;99.90;;;;;;5071462;28;20186;-52
2021/06/01 01:28:02;;;;;;;7.07;5.53;;;12.10;99.90;;;;;;5078964;28;20241;-46
2021/06/01 01:30:36;;;;;;;6.97;4.77;;;12.10;99.90;;;;;;5064493;28;20407;-47
2021/06/01 01:33:13;;;;;;;5.80;5.20;;;12.10;99.90;;;;;;5085038;28;20206;-52
2021/06/01 01:35:41;;;;;;;5.67;5.07;;;12.00;99.90;;;;;;5082219;28;20201;-49
2021/06/01 01:38:08;;;;;;;8.63;5.20;;;12.00;99.90;;;;;;5093110;28;20326;-51
2021/06/01 01:40:37;;;;;;;7.97;5.27;;;12.00;99.90;;;;;;5081064;28;20182;-50
2021/06/01 01:43:06;;;;;;;5.13;4.70;;;12.00;99.90;;;;;;5086822;28;20711;-49
2021/06/01 01:45:35;;;;;;;5.70;5.20;;;12.10;99.90;;;;;;5083631;28;20198;-49
2021/06/01 01:50:54;;;;;;;6.37;5.10;;;12.10;99.90;;;;;;5082419;28;20202;-48
2021/06/01 01:53:20;;;;;;;5.97;4.60;;;12.00;99.90;;;;;;5082616;28;20186;-51
2021/06/01 01:55:49;;;;;;;5.67;5.17;;;12.00;99.90;;;;;;5075655;28;20208;-47
2021/06/01 01:58:18;;;;;;;6.77;5.50;;;12.10;99.90;;;;;;5076712;28;20230;-49
2021/06/01 02:00:45;;;;;;;5.33;4.80;;;12.00;99.90;;;;;;5082843;28;20223;-51
2021/06/01 02:03:12;;;;;;;6.17;5.33;;;12.00;99.90;;;;;;5065105;28;20206;-47
2021/06/01 02:05:40;;;;;;;5.97;5.30;;;11.90;99.90;;;;;;5075656;28;20225;-49
2021/06/01 02:08:09;;;;;;;6.00;5.33;;;11.90;99.90;;;;;;5081682;28;20225;-49
2021/06/01 02:10:36;;;;;;;6.43;5.73;;;11.90;99.90;;;;;;5074670;28;20228;-46
2021/06/01 02:13:04;;;;;;;5.60;5.17;;;11.80;99.90;;;;;;5091322;28;20803;-47
2021/06/01 02:15:30;;;;;;;7.90;5.33;;;11.70;99.90;;;;;;5074540;28;20298;-49
2021/06/01 02:17:56;;;;;;;6.17;5.33;;;11.70;99.90;;;;;;5060572;28;20695;-45
2021/06/01 02:20:22;;;;;;;5.70;5.13;;;11.60;99.90;;;;;;5073266;28;20190;-48
2021/06/01 02:25:44;;;;;;;7.83;5.13;;;11.60;99.90;;;;;;5077710;28;20422;-50
2021/06/01 02:28:16;;;;;;;5.87;4.73;;;11.60;99.90;;;;;;5075890;28;20246;-49
2021/06/01 02:30:50;;;;;;;6.63;5.37;;;11.60;99.90;;;;;;5081728;28;20225;-52
2021/06/01 02:33:21;;;;;;;5.97;5.37;;;11.60;99.90;;;;;;5068740;28;20193;-50
2021/06/01 02:35:48;;;;;;;5.87;5.27;;;11.70;99.90;;;;;;5079884;28;20285;-49
2021/06/01 02:38:15;;;;;;;5.83;5.33;;;11.60;99.90;;;;;;5075344;28;20218;-50
2021/06/01 02:40:44;;;;;;;6.67;5.20;;;11.60;99.90;;;;;;5081883;28;20190;-53
2021/06/01 02:43:12;;;;;;;6.57;5.57;;;;;;;;;;5069299;28;20198;-50
2021/06/01 02:45:40;;;;;;;7.67;5.30;;;11.40;99.90;;;;;;5081981;28;20214;-47
2021/06/01 02:48:08;;;;;;;7.10;5.20;;;11.40;99.90;;;;;;5080593;28;20229;-47
2021/06/01 02:50:36;;;;;;;6.20;5.50;;;11.20;99.90;;;;;;5066123;28;20206;-51
2021/06/01 02:53:03;;;;;;;5.30;4.80;;;11.30;99.90;;;;;;5077654;28;20198;-49
2021/06/01 02:55:30;;;;;;;8.00;5.83;;;11.30;99.90;;;;;;5079627;28;20250;-49
2021/06/01 02:57:59;;;;;;;5.67;5.00;;;12.60;99.90;;;;;;5087247;28;20222;-50
2021/06/01 03:00:26;;;;;;;6.10;5.60;;;;;;;;;;5079682;28;20857;-49
2021/06/01 03:02:53;;;;;;;6.33;5.73;;;11.00;99.90;;;;;;5093857;28;20659;-46
2021/06/01 03:05:20;;;;;;;5.37;4.97;;;11.10;99.90;;;;;;5068103;28;20206;-48
2021/06/01 03:07:51;;;;;;;6.07;5.47;;;11.20;99.90;;;;;;5085759;28;20220;-52
2021/06/01 03:10:19;;;;;;;6.27;5.57;;;11.10;99.90;;;;;;5080749;28;20214;-50
2021/06/01 03:12:48;;;;;;;5.90;5.40;;;11.10;99.90;;;;;;5081683;28;20263;-50
2021/06/01 03:15:16;;;;;;;7.70;5.60;;;11.00;99.90;;;;;;5076740;28;20251;-52
2021/06/01 03:17:42;;;;;;;5.73;5.23;;;11.00;99.90;;;;;;5086106;28;20226;-50
2021/06/01 03:20:10;;;;;;;5.30;4.80;;;11.00;99.90;;;;;;5084234;28;20194;-50
2021/06/01 03:22:36;;;;;;;5.17;4.77;;;11.00;99.90;;;;;;5068297;28;20925;-51
2021/06/01 03:25:04;;;;;;;6.13;4.67;;;11.00;99.90;;;;;;5081543;28;20209;-52
2021/06/01 03:27:30;;;;;;;6.27;5.37;;;11.00;99.90;;;;;;5081352;28;20206;-52
2021/06/01 03:29:56;;;;;;;5.43;4.90;;;11.00;99.90;;;;;;5072703;28;20267;-50
2021/06/01 03:32:23;;;;;;;5.90;5.30;;;10.90;99.90;;;;;;5081010;28;20202;-52
2021/06/01 03:34:50;;;;;;;7.70;5.60;;;11.00;99.90;;;;;;5086021;28;20198;-48
2021/06/01 03:37:16;;;;;;;5.97;5.47;;;10.90;99.90;;;;;;5062730;28;20217;-52
2021/06/01 03:39:42;;;;;;;6.03;5.10;;;10.90;99.90;;;;;;5081086;28;20256;-49
2021/06/01 03:42:12;;;;;;;6.47;5.87;;;10.90;99.90;;;;;;5075072;28;20206;-52
2021/06/01 03:44:39;;;;;;;7.57;5.03;;;10.90;99.90;;;;;;5079084;28;20210;-47
2021/06/01 03:47:05;;;;;;;7.00;5.67;;;11.00;99.90;;;;;;5081446;28;20673;-49
2021/06/01 03:49:33;;;;;;;6.10;5.50;;;11.10;99.90;;;;;;5079500;28;20218;-50
2021/06/01 03:52:00;;;;;;;7.97;5.90;;;11.00;99.90;;;;;;5089307;28;20314;-50
2021/06/01 03:54:26;;;;;;;7.60;5.57;;;11.00;99.90;;;;;;5060669;28;20435;-46
2021/06/01 03:56:52;;;;;;;5.97;5.30;;;11.00;99.90;;;;;;5085097;28;20202;-46
2021/06/01 03:59:19;;;;;;;8.00;6.13;;;11.00;99.90;;;;;;5076654;28;20269;-46
2021/06/01 04:01:45;;;;;;;7.50;5.60;;;11.00;99.90;;;;;;5079444;28;20201;-47
2021/06/01 04:04:11;;;;;;;7.77;5.57;;;11.10;99.90;;;;;;5082620;28;20198;-49
2021/06/01 04:06:38;;;;;;;7.10;5.90;;;11.10;99.90;;;;;;5080323;28;20983;-48
2021/06/01 04:09:05;;;;;;;6.10;5.50;;;11.20;99.90;;;;;;5076754;28;20637;-48
2021/06/01 04:11:31;;;;;;;6.33;4.87;;;11.20;99.90;;;;;;5074408;28;20201;-49
2021/06/01 04:13:57;;;;;;;7.33;5.23;;;11.30;99.90;;;;;;5084751;28;20201;-46
2021/06/01 04:16:23;;;;;;;8.03;6.00;;;11.30;99.90;;;;;;5075041;28;20186;-46
2021/06/01 04:18:49;;;;;;;6.40;5.30;;;11.30;99.90;;;;;;5084590;28;20222;-49
2021/06/01 04:21:16;;;;;;;7.83;5.40;;;11.40;99.90;;;;;;5074475;28;20271;-47
2021/06/01 04:23:43;;;;;;;6.60;5.23;;;11.40;99.90;;;;;;5073000;28;20202;-48
2021/06/01 04:26:09;;;;;;;7.07;5.10;;;11.50;99.90;;;;;;5067132;28;20217;-47
2021/06/01 04:28:35;;;;;;;6.43;5.77;;;11.50;99.90;;;;;;5081805;28;20268;-48
2021/06/01 04:31:01;;;;;;;6.23;5.43;;;11.50;99.90;;;;;;5078830;28;20596;-49
2021/06/01 04:33:27;;;;;;;7.67;5.37;;;11.50;99.90;;;;;;5080202;28;20201;-49
2021/06/01 04:35:54;;;;;;;7.50;5.90;;;11.60;99.90;;;;;;5083422;28;20693;-49
2021/06/01 04:38:20;;;;;;;8.00;5.87;;;11.60;99.90;;;;;;5078494;28;20198;-48
2021/06/01 04:40:47;;;;;;;6.90;5.77;;;11.70;99.90;;;;;;5065870;28;20194;-47
2021/06/01 04:43:13;;;;;;;7.43;6.03;;;11.70;99.90;;;;;;5081169;28;20202;-49
2021/06/01 04:45:39;;;;;;;8.57;6.10;;;11.70;99.90;;;;;;5084736;28;20202;-46
2021/06/01 04:48:06;;;;;;;6.57;5.67;;;11.70;99.90;;;;;;5075440;28;20413;-48
2021/06/01 04:50:32;;;;;;;7.90;5.93;;;11.80;99.90;;;;;;5072023;28;20222;-46
2021/06/01 04:52:58;;;;;;;6.93;6.13;;;11.80;99.90;;;;;;5067952;28;20198;-49
2021/06/01 04:55:24;;;;;;;6.43;5.83;;;11.80;99.90;;;;;;5077235;28;20197;-47
2021/06/01 04:57:52;;;;;;;6.60;5.60;;;11.90;99.90;;;;;;5069815;28;20214;-49
2021/06/01 05:00:19;;;;;;;7.43;6.17;;;11.90;99.90;;;;;;5074893;28;20188;-45
2021/06/01 05:02:45;;;;;;;6.67;5.90;;;12.00;99.90;;;;;;5071642;28;20836;-49
2021/06/01 05:05:11;;;;;;;8.43;6.97;;;12.00;99.90;;;;;;5077470;28;20603;-50
2021/06/01 05:07:38;;;;;;;7.73;6.93;;;12.10;99.90;;;;;;5084082;28;20217;-46
2021/06/01 05:10:05;;;;;;;9.17;6.63;;;12.10;99.90;;;;;;5079993;28;20232;-46
2021/06/01 05:12:32;;;;;;;7.00;6.30;;;12.20;99.90;;;;;;5072668;28;20616;-49
2021/06/01 05:15:00;;;;;;;9.40;7.00;;;12.20;99.90;;;;;;5077124;28;20267;-48
2021/06/01 05:17:27;;;;;;;10.70;7.23;;;12.20;99.90;;;;;;5077369;28;20290;-47
2021/06/01 05:19:54;;;;;;;9.43;6.60;;;12.30;99.90;;;;;;5082564;28;20659;-46
2021/06/01 05:22:20;;;;;;;9.07;6.70;;;12.30;99.90;;;;;;5080003;28;20832;-45
2021/06/01 05:24:46;;;;;;;8.37;7.03;;;12.40;99.90;;;;;;5082507;28;20198;-47
2021/06/01 05:27:12;;;;;;;11.17;7.23;;;12.50;99.90;;;;;;5065788;28;20966;-52
2021/06/01 05:29:42;;;;;;;7.47;6.63;;;12.50;99.90;;;;;;5077070;28;20706;-49
2021/06/01 05:32:52;;;;;;;6.93;5.80;;;12.60;99.90;;;;;;5075776;28;20666;-51
2021/06/01 05:34:59;;;;;;;9.00;7.07;;;12.70;99.90;;;;;;5081796;28;20197;-47
2021/06/01 05:37:27;;;;;;;8.63;6.77;;;12.70;99.90;;;;;;5079103;28;20267;-53
2021/06/01 05:39:53;;;;;;;11.07;6.20;;;12.70;99.90;;;;;;5081316;28;20239;-50
2021/06/01 05:42:19;;;;;;;7.63;6.77;;;12.80;99.90;;;;;;5067871;28;20513;-46
2021/06/01 05:44:47;;;;;;;6.83;6.13;;;12.80;99.90;;;;;;5078471;28;20285;-46
2021/06/01 05:47:14;;;;;;;7.57;6.30;;;12.90;99.90;;;;;;5078973;28;20202;-47
2021/06/01 05:49:41;;;;;;;8.70;6.97;;;13.00;99.90;;;;;;5075154;28;20214;-49
2021/06/01 05:52:08;;;;;;;12.23;6.87;;;13.10;99.90;;;;;;5076384;28;20217;-47
2021/06/01 05:54:34;;;;;;;11.50;7.50;;;13.20;99.90;;;;;;5081919;28;20194;-46
2021/06/01 05:57:00;;;;;;;11.37;7.50;;;13.30;99.90;;;;;;5089983;28;20201;-49
2021/06/01 05:59:26;;;;;;;10.43;8.03;;;13.50;99.90;;;;;;5063029;27;20198;-46
2021/06/01 06:01:52;;;;;;;9.10;7.90;;;13.60;99.90;;;;;;5076115;28;20201;-50
2021/06/01 06:04:20;;;;;;;8.83;7.33;;;13.70;99.90;;;;;;5080207;28;20197;-46
2021/06/01 06:06:46;;;;;;;8.20;7.20;;;13.90;99.90;;;;;;5090964;28;20339;-47
2021/06/01 06:09:12;;;;;;;9.60;6.30;;;14.00;99.90;;;;;;5092781;28;20209;-48
2021/06/01 06:11:38;;;;;;;9.67;6.63;;;14.20;99.90;;;;;;5081781;28;20202;-47
2021/06/01 06:14:05;;;;;;;7.70;6.47;;;14.40;99.90;;;;;;5061867;28;20285;-48
2021/06/01 06:16:40;;;;;;;8.10;5.77;;;14.50;99.90;;;;;;5074606;28;20209;-45
2021/06/01 06:19:06;;;;;;;8.13;5.70;;;14.70;99.90;;;;;;5077424;28;20221;-47
2021/06/01 06:21:34;;;;;;;6.03;5.40;;;14.80;99.90;;;;;;5083039;28;20194;-47
2021/06/01 06:24:00;;;;;;;9.57;5.50;;;15.00;99.90;;;;;;5069565;28;20205;-51
2021/06/01 06:26:26;;;;;;;5.80;5.20;;;15.10;99.90;;;;;;5080016;28;20190;-48
2021/06/01 06:28:52;;;;;;;7.63;5.07;;;15.20;99.90;;;;;;5077260;28;20224;-51
2021/06/01 06:31:19;;;;;;;5.43;4.90;;;15.40;99.90;;;;;;5063392;28;20961;-48
2021/06/01 06:33:45;;;;;;;6.53;4.80;;;15.50;99.90;;;;;;5083431;28;20671;-51
2021/06/01 06:36:11;;;;;;;7.03;3.67;;;15.60;99.90;;;;;;5078710;28;20178;-49
2021/06/01 06:38:39;;;;;;;6.07;3.57;;;15.70;99.90;;;;;;5082554;28;20214;-47
2021/06/01 06:41:12;;;;;;;5.87;3.00;;;15.90;99.90;;;;;;5079263;28;20193;-51
2021/06/01 06:43:39;;;;;;;4.00;2.80;;;16.10;99.90;;;;;;5082684;28;20209;-50
2021/06/01 06:46:08;;;;;;;2.57;2.40;;;16.30;99.90;;;;;;5060979;28;20217;-51
2021/06/01 06:48:34;;;;;;;2.63;1.83;;;16.40;99.90;;;;;;5077708;28;20244;-47
2021/06/01 06:51:01;;;;;;;4.00;2.77;;;16.60;99.90;;;;;;5075506;28;20686;-51
2021/06/01 06:53:27;;;;;;;2.70;2.50;;;16.80;99.90;;;;;;5086977;28;20194;-48
2021/06/01 06:55:54;;;;;;;2.43;2.23;;;17.00;99.90;;;;;;5065641;28;20202;-52
2021/06/01 06:58:21;;;;;;;2.40;2.00;;;17.20;99.70;;;;;;5057861;28;20221;-50
2021/06/01 07:00:47;;;;;;;3.20;2.23;;;17.30;99.50;;;;;;5070491;28;20281;-46
2021/06/01 07:03:13;;;;;;;4.53;2.70;;;17.30;99.20;;;;;;5047739;28;20202;-48
2021/06/01 07:05:39;;;;;;;4.47;1.90;;;17.50;97.50;;;;;;5078061;28;20194;-51
2021/06/01 07:08:05;;;;;;;1.87;1.73;;;17.60;95.50;;;;;;5076639;28;20228;-51
2021/06/01 07:10:31;;;;;;;1.70;1.60;;;17.70;93.50;;;;;;5079397;28;20244;-49
2021/06/01 07:13:01;;;;;;;2.40;2.20;;;17.90;92.30;;;;;;5081309;28;20196;-51
2021/06/01 07:15:36;;;;;;;2.10;1.80;;;18.00;91.30;;;;;;5081572;28;20193;-49
2021/06/01 07:18:03;;;;;;;4.40;2.27;;;18.10;91.40;;;;;;5056296;28;20218;-51
2021/06/01 07:20:31;;;;;;;3.60;1.93;;;18.10;91.90;;;;;;5078505;28;20190;-48
2021/06/01 07:22:58;;;;;;;3.73;1.90;;;18.10;95.90;;;;;;5076693;28;20202;-48
2021/06/01 07:25:24;;;;;;;6.10;2.20;;;18.30;99.30;;;;;;5076736;28;20186;-49
2021/06/01 07:27:50;;;;;;;2.53;1.87;;;18.10;97.90;;;;;;5082831;28;20221;-46
2021/06/01 07:30:18;;;;;;;2.03;1.93;;;18.10;96.80;;;;;;5075380;28;20225;-47
2021/06/01 07:32:45;;;;;;;8.07;2.73;;;18.10;99.20;;;;;;5073359;28;20194;-48
2021/06/01 07:35:12;;;;;;;1.90;1.80;;;18.20;95.70;;;;;;5063785;28;20934;-53
2021/06/01 07:37:39;;;;;;;3.73;2.10;;;18.20;93.80;;;;;;5076718;28;20221;-52
2021/06/01 07:40:07;;;;;;;2.03;1.93;;;18.30;93.10;;;;;;5073764;28;20237;-52
2021/06/01 07:42:33;;;;;;;3.63;2.50;;;18.30;93.40;;;;;;5082483;28;20205;-44
2021/06/01 07:44:59;;;;;;;4.13;2.10;;;18.30;95.20;;;;;;5074193;28;20212;-48
2021/06/01 07:47:27;;;;;;;4.47;2.20;;;18.30;96.30;;;;;;5079673;28;20202;-44
2021/06/01 07:49:53;;;;;;;3.13;2.60;;;18.40;99.60;;;;;;5068209;28;20302;-48
2021/06/01 07:52:19;;;;;;;5.27;2.33;;;18.40;95.80;;;;;;5081514;28;20192;-48
2021/06/01 07:54:46;;;;;;;2.60;2.40;;;18.50;93.10;;;;;;5085298;28;20190;-48
2021/06/01 07:57:12;;;;;;;2.33;2.13;;;18.60;90.40;;;;;;5075991;28;20311;-45
2021/06/01 07:59:38;;;;;;;3.63;2.17;;;18.70;89.20;;;;;;5085416;28;20655;-47
2021/06/01 08:02:04;;;;;;;2.43;2.23;;;18.90;88.90;;;;;;5082539;28;20624;-49
2021/06/01 08:04:32;;;;;;;1.97;1.87;;;19.00;88.90;;;;;;5070640;28;20233;-48
2021/06/01 08:07:02;;;;;;;2.33;2.13;;;19.10;87.90;;;;;;5083635;28;20182;-47
2021/06/01 08:09:28;;;;;;;2.20;2.00;;;19.20;85.20;;;;;;5083884;28;20198;-48
2021/06/01 08:11:54;;;;;;;3.03;1.90;;;19.20;84.30;;;;;;5079950;28;20206;-48
2021/06/01 08:14:20;;;;;;;4.23;2.70;;;19.30;85.40;;;;;;5082835;28;20198;-46
2021/06/01 08:16:46;;;;;;;7.03;2.60;;;19.40;84.80;;;;;;5085132;28;20206;-47
2021/06/01 08:19:15;;;;;;;5.37;2.90;;;19.40;83.60;;;;;;5067131;28;20217;-46
2021/06/01 08:21:50;;;;;;;3.37;2.50;;;19.40;85.50;;;;;;5085144;28;20220;-47
2021/06/01 08:24:16;;;;;;;2.27;2.07;;;19.40;86.00;;;;;;5078804;28;20451;-45
2021/06/01 08:26:43;;;;;;;5.00;2.10;;;19.40;85.80;;;;;;5069238;28;20206;-48
2021/06/01 08:29:09;;;;;;;4.23;2.40;;;19.50;87.50;;;;;;5081078;28;20225;-44
2021/06/01 08:31:35;;;;;;;2.50;2.30;;;19.50;87.50;;;;;;5085439;28;20659;-48
2021/06/01 08:34:02;;;;;;;2.70;2.30;;;19.50;85.50;;;;;;5080930;28;20193;-46
2021/06/01 08:36:28;;;;;;;2.67;2.47;;;19.60;84.70;;;;;;5071346;28;20220;-49
2021/06/01 08:38:55;;;;;;;4.77;2.60;;;19.60;82.00;;;;;;5079808;28;20201;-48
2021/06/01 08:41:22;;;;;;;3.50;2.43;;;19.70;82.80;;;;;;5084663;28;20194;-46
2021/06/01 08:43:50;;;;;;;3.90;2.50;;;19.80;82.90;;;;;;5077287;28;20206;-48
2021/06/01 08:46:16;;;;;;;4.40;2.40;;;19.90;83.70;;;;;;5084982;28;20312;-46
2021/06/01 08:48:44;;;;;;;4.83;2.17;;;19.90;83.50;;;;;;5081014;28;20698;-49
2021/06/01 08:51:10;;;;;;;4.93;2.37;;;19.90;82.50;;;;;;5068177;28;20214;-47
2021/06/01 08:53:37;;;;;;;2.40;2.30;;;20.00;81.30;;;;;;5081043;28;20263;-52
2021/06/01 08:56:05;;;;;;;11.90;2.60;;;20.10;83.00;;;;;;5071365;28;20209;-47
2021/06/01 08:58:31;;;;;;;3.00;2.40;;;20.10;83.20;;;;;;5075596;28;20217;-48
2021/06/01 09:00:57;;;;;;;4.43;2.33;;;20.20;83.40;;;;;;5077818;28;20265;-46
2021/06/01 09:03:26;;;;;;;3.07;2.87;;;20.20;85.10;;;;;;5083315;28;20190;-45
2021/06/01 09:06:13;;;;;;;4.33;2.53;;;20.30;86.50;;;;;;5065919;28;20213;-47
2021/06/01 09:08:45;;;;;;;6.47;3.80;;;20.40;85.40;;;;;;5079146;28;20721;-44
2021/06/01 09:11:26;;;;;;;8.30;3.80;;;20.40;83.70;;;;;;5080340;28;20300;-45
2021/06/01 09:14:15;;;;;;;4.23;2.53;;;20.40;83.40;;;;;;5073259;28;20295;-49
2021/06/01 09:22:30;;;;;;;5.47;2.60;;;20.70;83.20;;;;;;5000085;28;20280;-46
2021/06/01 09:25:01;;;;;;;3.43;2.60;;;20.80;83.90;;;;;;5021891;28;20200;-47
2021/06/01 09:27:30;;;;;;;4.23;2.63;;;20.90;80.00;;;;;;5045205;28;20261;-45
2021/06/01 09:29:56;;;;;;;3.87;2.67;;;20.90;80.50;;;;;;5079000;28;20206;-45
2021/06/01 09:32:23;;;;;;;3.07;2.73;;;20.90;79.70;;;;;;5076155;28;20247;-46
2021/06/01 09:34:50;;;;;;;3.03;2.83;;;20.90;80.80;;;;;;5084462;28;20601;-45
2021/06/01 09:37:22;;;;;;;5.30;3.50;;;20.90;80.60;;;;;;5066285;28;20225;-46
2021/06/01 09:40:09;;;;;;;3.73;3.10;;;20.80;80.50;;;;;;5083512;28;20189;-45
2021/06/01 09:42:39;;;;;;;4.30;3.13;;;20.90;81.90;;;;;;5072129;28;20212;-45
2021/06/01 09:45:08;;;;;;;4.00;3.60;;;20.90;81.50;;;;;;5077561;28;20204;-48
2021/06/01 09:47:42;;;;;;;4.17;3.30;;;20.90;82.60;;;;;;5079018;28;20274;-46
2021/06/01 09:50:13;;;;;;;4.13;2.93;;;20.90;84.80;;;;;;5080911;28;20198;-44
2021/06/01 09:52:47;;;;;;;3.77;3.07;;;21.00;84.10;;;;;;5069621;28;20317;-46
2021/06/01 09:55:24;;;;;;;3.50;3.00;;;21.00;84.30;;;;;;5079031;28;20202;-44
2021/06/01 09:57:52;;;;;;;5.23;3.20;;;21.10;86.20;;;;;;5077369;28;20213;-46
2021/06/01 10:00:20;;;;;;;3.73;3.37;;;21.20;85.20;;;;;;5074889;28;20240;-47
2021/06/01 10:02:49;;;;;;;5.13;3.20;;;21.10;84.40;;;;;;5078903;28;20198;-45
2021/06/01 10:05:18;;;;;;;4.43;3.00;;;21.20;84.20;;;;;;5067270;28;20206;-45
2021/06/01 10:07:45;;;;;;;5.23;3.60;;;21.20;83.50;;;;;;5068525;28;20605;-48
2021/06/01 10:10:17;;;;;;;3.83;3.37;;;21.20;83.80;;;;;;5065279;28;20214;-44
2021/06/01 10:12:45;;;;;;;4.27;3.87;;;21.30;84.70;;;;;;5070136;28;20270;-45
2021/06/01 10:15:14;;;;;;;5.57;3.30;;;21.30;83.20;;;;;;5071925;28;20228;-45
2021/06/01 10:17:40;;;;;;;6.17;3.10;;;21.40;82.70;;;;;;5083428;28;20987;-45
2021/06/01 10:20:08;;;;;;;7.00;3.50;;;21.50;83.30;;;;;;5076750;28;20202;-44
2021/06/01 10:22:35;;;;;;;7.33;3.80;;;21.60;84.80;;;;;;5081815;28;20194;-45
2021/06/01 10:25:02;;;;;;;5.93;3.57;;;21.50;85.70;;;;;;5067585;28;20202;-44
2021/06/01 10:27:28;;;;;;;4.23;3.27;;;21.60;84.90;;;;;;5080678;28;20467;-44
2021/06/01 10:29:55;;;;;;;4.13;3.80;;;21.60;85.20;;;;;;5078547;28;20229;-44
2021/06/01 10:32:24;;;;;;;4.70;3.90;;;21.80;84.20;;;;;;5075217;28;20267;-46
2021/06/01 10:34:51;;;;;;;6.10;3.87;;;21.80;84.50;;;;;;5079029;28;20202;-47
2021/06/01 10:43:19;;;;;;;4.23;3.43;;;21.80;84.30;;;;;;5079793;28;20194;-44
2021/06/01 10:48:54;;;;;;;4.00;3.50;;;21.90;82.30;;;;;;5077870;28;20691;-45
2021/06/01 10:51:30;;;;;;;4.70;3.80;;;21.90;82.40;;;;;;5089003;28;20919;-46
2021/06/01 10:53:56;;;;;;;4.47;4.13;;;21.90;80.20;;;;;;5080175;28;20193;-44
2021/06/01 10:56:22;;;;;;;4.25;3.42;;;21.90;81.70;;;;;;5060615;28;20727;-44
2021/06/01 10:59:05;;;;;;;6.20;3.70;;;22.00;82.50;;;;;;5082175;28;20217;-44
2021/06/01 11:04:20;;;;;;;5.60;4.00;;;22.20;79.90;;;;;;5069463;28;20193;-50
2021/06/01 11:09:55;;;;;;;4.20;3.80;;;22.10;80.20;;;;;;5064179;28;20322;-48
2021/06/01 11:12:41;;;;;;;5.72;3.80;;;22.10;82.00;;;;;;5063182;28;20943;-43
2021/06/01 11:15:29;;;;;;;5.50;3.90;;;22.10;82.20;;;;;;5076066;28;20204;-50
2021/06/01 11:18:17;;;;;;;4.23;3.93;;;22.10;83.00;;;;;;5077467;28;20579;-47
2021/06/01 11:21:10;;;;;;;3.93;3.63;;;22.30;81.80;;;;;;5069706;28;20558;-46
2021/06/01 11:35:38;;;;;;;4.22;3.58;;;22.40;78.40;;;;;;5078091;28;20218;-49
2021/06/01 11:38:12;;;;;;;3.67;3.30;;;22.50;81.40;;;;;;5064904;28;20233;-47
2021/06/01 11:40:52;;;;;;;3.15;2.95;;;22.60;78.60;;;;;;5077940;28;20186;-49
2021/06/01 11:43:20;;;;;;;4.20;3.42;;;22.80;78.10;;;;;;5067509;28;20206;-48
2021/06/01 11:45:52;;;;;;;3.35;3.05;;;22.70;75.70;;;;;;5085979;28;20322;-49
2021/06/01 11:50:56;;;;;;;3.35;3.05;;;22.60;74.40;;;;;;5076893;28;20217;-48
2021/06/01 11:51:18;;;;;;;3.50;3.20;;;22.50;75.30;;;;;;5076781;28;20194;-50
2021/06/01 11:53:57;;;;;;;3.42;3.13;;;22.70;73.60;;;;;;5083307;28;20567;-45
2021/06/01 11:56:42;;;;;;;4.97;3.42;;;22.80;68.60;;;;;;5065070;28;20194;-44
2021/06/01 12:02:07;;;;;;;3.13;2.67;;;23.10;72.70;;;;;;5078044;28;20511;-49
2021/06/01 12:04:41;;;;;;;4.43;3.17;;;23.10;72.40;;;;;;5073396;28;20208;-50
2021/06/01 12:12:47;;;;;;;2.58;2.38;;;23.00;65.30;;;;;;5072836;28;20209;-47
2021/06/01 12:18:11;;;;;;;2.60;2.40;;;23.00;62.90;;;;;;5079594;28;20242;-49
2021/06/01 12:20:38;;;;;;;3.63;2.75;;;22.90;63.00;;;;;;5079292;28;20201;-52
2021/06/01 12:23:26;;;;;;;3.72;3.38;;;23.00;62.80;;;;;;5079879;28;20205;-49
2021/06/01 12:26:12;;;;;;;5.78;3.00;;;23.00;63.20;;;;;;5079440;28;20200;-49
2021/06/01 12:32:00;;;;;;;6.18;2.88;;;23.20;64.10;;;;;;5084629;28;20217;-49
2021/06/01 12:34:34;;;;;;;3.13;2.92;;;23.50;64.90;;;;;;5082641;28;20186;-51
2021/06/01 12:42:57;;;;;;;3.60;2.90;;;23.80;62.40;;;;;;5067594;28;20189;-47
2021/06/01 12:46:01;;;;;;;4.13;2.80;;;23.80;62.10;;;;;;5057886;28;20225;-48
2021/06/01 13:12:21;;;;;;;3.67;3.20;;;25.30;56.60;;;;;;5061482;28;20366;-47
2021/06/01 13:20:27;;;;;;;3.95;2.85;;;25.60;56.80;;;;;;5077681;28;20212;-45
2021/06/01 13:23:10;;;;;;;3.80;3.05;;;26.00;57.20;;;;;;5075273;28;20218;-48
2021/06/01 13:31:24;;;;;;;3.65;2.85;;;25.50;57.70;;;;;;5061946;28;20210;-47
2021/06/01 13:36:43;;;;;;;3.17;2.88;;;25.30;58.50;;;;;;5060236;28;20335;-49
2021/06/01 13:39:36;;;;;;;3.38;3.13;;;25.20;59.40;;;;;;5077574;28;20217;-46
2021/06/01 13:47:52;;;;;;;4.28;3.47;;;25.10;57.90;;;;;;5064665;28;20319;-47
2021/06/01 13:50:28;;;;;;;4.63;3.40;;;25.10;58.50;;;;;;5082735;28;20301;-46
2021/06/01 13:55:05;;;;;;;4.80;3.28;;;25.10;58.40;;;;;;5072291;28;20208;-45
2021/06/01 13:55:51;;;;;;;4.88;3.08;;;25.00;57.70;;;;;;5080057;28;20762;-46
2021/06/01 13:58:34;;;;;;;4.35;3.00;;;24.90;59.20;;;;;;5083600;28;20206;-48
2021/06/01 14:01:06;;;;;;;7.45;3.00;;;24.80;58.40;;;;;;5082526;28;20274;-47
2021/06/01 14:29:28;;;;;;;3.88;2.50;;;24.60;60.30;;;;;;5080029;28;20695;-48
2021/06/01 14:32:02;;;;;;;2.25;2.15;;;24.50;58.50;;;;;;5071895;28;20304;-46
2021/06/01 14:40:29;;;;;;;2.15;2.05;;;24.40;57.60;;;;;;5054237;28;20210;-46
2021/06/01 15:32:30;;;;;;;2.95;1.60;;;22.80;56.40;;;;;;5080593;28;20275;-49
2021/06/01 15:49:11;;;;;;;2.35;1.42;;;23.80;55.20;;;;;;5041109;28;20747;-43
2021/06/01 15:51:51;;;;;;;1.45;1.35;;;24.20;55.00;;;;;;5021784;28;20299;-49
2021/06/01 16:11:33;;;;;;;1.65;1.40;;;22.90;53.40;;;;;;5073375;28;20240;-48
2021/06/01 16:14:07;;;;;;;3.30;1.50;;;22.70;52.90;;;;;;5081337;28;20225;-46
2021/06/01 16:22:25;;;;;;;1.75;1.10;;;22.10;47.90;;;;;;5070323;28;20279;-47
2021/06/01 16:30:32;;;;;;;1.67;1.00;;;21.80;48.90;;;;;;5072292;28;20236;-48
2021/06/01 16:33:19;;;;;;;1.50;0.50;;;21.60;48.80;;;;;;5085768;28;20190;-47
2021/06/01 16:41:50;;;;;;;1.73;1.23;;;21.50;47.10;;;;;;5081558;28;20182;-46
2021/06/01 16:44:20;;;;;;;1.27;0.52;;;21.40;47.00;;;;;;5079008;28;20190;-47
2021/06/01 17:03:23;;;;;;;1.27;0.65;;;20.80;46.80;;;;;;5077177;28;20204;-48
2021/06/01 17:05:52;;;;;;;1.10;1.03;;;20.60;44.70;;;;;;5080799;28;20659;-48
2021/06/01 17:08:45;;;;;;;0.70;0.70;;;20.50;44.90;;;;;;5072843;28;20274;-44